createdAt,value
2023-07-25T00:00:54.704Z,93226.94
2023-07-25T00:03:22.691Z,93227.25
2023-07-25T00:05:50.073Z,93229.41
2023-07-25T00:08:17.555Z,93233.91
2023-07-25T00:10:45.351Z,93235.50
2023-07-25T00:13:13.345Z,93243.09
2023-07-25T00:15:40.711Z,93246.19
2023-07-25T00:18:08.780Z,93246.09
2023-07-25T00:20:36.165Z,93246.50
2023-07-25T00:23:03.450Z,93242.34
2023-07-25T00:25:31.192Z,93246.66
2023-07-25T00:27:59.482Z,93240.25
2023-07-25T00:30:26.907Z,93234.88
2023-07-25T00:32:54.696Z,93224.31
2023-07-25T00:35:22.231Z,93229.41
2023-07-25T00:37:49.616Z,93224.41
2023-07-25T00:40:17.285Z,93220.62
2023-07-25T00:42:44.904Z,93217.22
2023-07-25T00:45:12.348Z,93224.41
2023-07-25T00:47:41.077Z,93205.41
2023-07-25T00:50:08.987Z,93214.75
2023-07-25T00:52:36.412Z,93209.37
2023-07-25T00:55:04.471Z,93214.72
2023-07-25T00:57:34.667Z,93215.19
2023-07-25T01:00:02.152Z,93216.41
2023-07-25T01:02:30.438Z,93207.09
2023-07-25T01:04:57.931Z,93209.97
2023-07-25T01:07:25.402Z,93207.47
2023-07-25T01:09:53.057Z,93202.94
2023-07-25T01:12:20.459Z,93198.75
2023-07-25T01:14:47.789Z,93204.63
2023-07-25T01:17:19.949Z,93201.13
2023-07-25T01:19:48.762Z,93202.72
2023-07-25T01:22:16.902Z,93200.22
2023-07-25T01:24:46.809Z,93196.66
2023-07-25T01:27:17.961Z,93204.38
2023-07-25T01:29:45.849Z,93210.34
2023-07-25T01:32:13.363Z,93210.16
2023-07-25T01:34:40.743Z,93206.75
2023-07-25T01:37:09.699Z,93210.91
2023-07-25T01:39:37.053Z,93210.91
2023-07-25T01:42:04.840Z,93209.28
2023-07-25T01:44:32.616Z,93208.25
2023-07-25T01:47:00.068Z,93212.25
2023-07-25T01:49:27.544Z,93206.66
2023-07-25T01:51:55.309Z,93198.66
2023-07-25T01:54:22.701Z,93193.78
2023-07-25T01:56:51.073Z,93191.62
2023-07-25T01:59:19.848Z,93191.06
2023-07-25T02:01:47.398Z,93200.50
2023-07-25T02:04:15.114Z,93198.25
2023-07-25T02:06:42.535Z,93198.47
2023-07-25T02:09:09.906Z,93199.84
2023-07-25T02:11:37.649Z,93201.00
2023-07-25T02:14:04.988Z,93189.53
2023-07-25T02:16:35.168Z,93195.09
2023-07-25T02:19:02.923Z,93205.47
2023-07-25T02:21:30.660Z,93207.34
2023-07-25T02:23:58.114Z,93211.88
2023-07-25T02:26:26.622Z,93210.03
2023-07-25T02:28:54.093Z,93213.28
2023-07-25T02:31:21.694Z,93213.41
2023-07-25T02:33:49.687Z,93212.59
2023-07-25T02:36:17.712Z,93220.69
2023-07-25T02:38:45.273Z,93227.88
2023-07-25T02:41:14.276Z,93224.28
2023-07-25T02:43:44.139Z,93221.53
2023-07-25T02:46:12.485Z,93234.56
2023-07-25T02:48:41.410Z,93240.00
2023-07-25T02:51:11.884Z,93241.63
2023-07-25T02:53:39.933Z,93239.50
2023-07-25T02:56:08.091Z,93238.72
2023-07-25T02:58:37.096Z,93238.97
2023-07-25T03:01:05.546Z,93229.81
2023-07-25T03:03:33.482Z,93230.22
2023-07-25T03:06:01.460Z,93244.06
2023-07-25T03:08:29.765Z,93234.31
2023-07-25T03:10:58.019Z,93230.69
2023-07-25T03:13:26.278Z,93229.78
2023-07-25T03:15:54.901Z,93231.38
2023-07-25T03:18:22.500Z,93235.81
2023-07-25T03:20:50.423Z,93230.47
2023-07-25T03:23:18.338Z,93236.53
2023-07-25T03:25:45.932Z,93227.72
2023-07-25T03:28:13.806Z,93234.16
2023-07-25T03:30:42.623Z,93232.03
2023-07-25T03:33:10.241Z,93226.81
2023-07-25T03:35:38.160Z,93223.50
2023-07-25T03:38:05.911Z,93231.16
2023-07-25T03:40:33.326Z,93228.41
2023-07-25T03:43:01.339Z,93226.03
2023-07-25T03:45:29.105Z,93228.47
2023-07-25T03:47:56.511Z,93228.06
2023-07-25T03:50:24.246Z,93230.00
2023-07-25T03:52:52.190Z,93230.13
2023-07-25T03:55:19.688Z,93229.59
2023-07-25T03:57:47.126Z,93233.75
2023-07-25T04:00:15.271Z,93231.59
2023-07-25T04:02:42.462Z,93229.75
2023-07-25T04:05:10.693Z,93225.37
2023-07-25T04:07:38.265Z,93230.72
2023-07-25T04:10:06.499Z,93225.00
2023-07-25T04:12:34.509Z,93226.56
2023-07-25T04:15:02.240Z,93224.47
2023-07-25T04:17:29.814Z,93221.41
2023-07-25T04:19:57.641Z,93214.12
2023-07-25T04:22:25.211Z,93219.50
2023-07-25T04:24:52.842Z,93222.31
2023-07-25T04:27:20.557Z,93230.91
2023-07-25T04:29:47.895Z,93237.75
2023-07-25T04:32:15.490Z,93235.09
2023-07-25T04:34:43.464Z,93230.47
2023-07-25T04:37:10.852Z,93230.47
2023-07-25T04:39:38.195Z,93227.25
2023-07-25T04:42:06.784Z,93228.03
2023-07-25T04:44:34.187Z,93227.97
2023-07-25T04:47:05.160Z,93227.38
2023-07-25T04:49:33.027Z,93228.38
2023-07-25T04:52:00.398Z,93216.81
2023-07-25T04:54:27.753Z,93219.78
2023-07-25T04:56:55.768Z,93213.91
2023-07-25T04:59:23.424Z,93205.50
2023-07-25T05:01:50.886Z,93202.19
2023-07-25T05:04:19.171Z,93211.78
2023-07-25T05:06:46.740Z,93205.31
2023-07-25T05:09:14.176Z,93208.16
2023-07-25T05:11:41.916Z,93215.31
2023-07-25T05:14:09.529Z,93203.63
2023-07-25T05:16:37.071Z,93201.94
2023-07-25T05:19:05.090Z,93194.41
2023-07-25T05:21:32.737Z,93197.38
2023-07-25T05:24:00.664Z,93193.66
2023-07-25T05:26:28.719Z,93189.22
2023-07-25T05:28:56.112Z,93190.84
2023-07-25T05:31:23.683Z,93182.44
2023-07-25T05:33:51.474Z,93174.47
2023-07-25T05:36:18.839Z,93178.09
2023-07-25T05:38:46.261Z,93177.41
2023-07-25T05:41:14.044Z,93181.50
2023-07-25T05:43:43.271Z,93177.94
2023-07-25T05:46:11.158Z,93173.78
2023-07-25T05:48:39.370Z,93176.88
2023-07-25T05:51:07.329Z,93174.75
2023-07-25T05:53:35.076Z,93158.03
2023-07-25T05:56:03.078Z,93153.88
2023-07-25T05:58:31.244Z,93156.97
2023-07-25T06:00:58.815Z,93153.44
2023-07-25T06:03:26.933Z,93158.88
2023-07-25T06:05:54.357Z,93159.72
2023-07-25T06:08:21.736Z,93145.69
2023-07-25T06:10:49.688Z,93149.50
2023-07-25T06:13:17.243Z,93147.00
2023-07-25T06:15:45.589Z,93149.16
2023-07-25T06:18:13.314Z,93144.94
2023-07-25T06:20:41.110Z,93148.00
2023-07-25T06:23:09.148Z,93145.31
2023-07-25T06:25:36.857Z,93143.84
2023-07-25T06:28:06.273Z,93139.91
2023-07-25T06:30:34.100Z,93137.97
2023-07-25T06:33:02.985Z,93128.50
2023-07-25T06:35:30.336Z,93124.88
2023-07-25T06:37:57.968Z,93113.94
2023-07-25T06:40:26.072Z,93110.94
2023-07-25T06:42:53.484Z,93105.72
2023-07-25T06:45:21.058Z,93109.41
2023-07-25T06:47:49.456Z,93111.03
2023-07-25T06:50:17.149Z,93103.94
2023-07-25T06:52:44.602Z,93097.63
2023-07-25T06:55:12.378Z,93089.31
2023-07-25T06:57:39.988Z,93077.47
2023-07-25T07:00:09.320Z,93072.34
2023-07-25T07:02:37.339Z,93068.44
2023-07-25T07:05:19.257Z,93077.44
2023-07-25T07:07:54.514Z,93073.63
2023-07-25T07:10:22.021Z,93070.25
2023-07-25T07:12:49.829Z,93057.56
2023-07-25T07:15:17.702Z,93052.16
2023-07-25T07:17:45.102Z,93059.44
2023-07-25T07:20:13.020Z,93058.16
2023-07-25T07:22:40.864Z,93058.59
2023-07-25T07:25:09.772Z,93044.72
2023-07-25T07:27:37.625Z,93044.00
2023-07-25T07:30:06.273Z,93041.03
2023-07-25T07:32:33.924Z,93034.63
2023-07-25T07:35:01.466Z,93039.63
2023-07-25T07:37:30.630Z,93034.41
2023-07-25T07:39:59.521Z,93026.72
2023-07-25T07:42:26.911Z,93036.94
2023-07-25T07:44:54.667Z,93030.91
2023-07-25T07:47:22.205Z,93038.06
2023-07-25T07:49:49.549Z,93037.69
2023-07-25T07:52:26.000Z,93038.75
2023-07-25T07:55:00.910Z,93027.87
2023-07-25T07:57:28.426Z,93022.44
2023-07-25T07:59:56.568Z,93027.91
2023-07-25T08:02:24.477Z,93021.84
2023-07-25T08:04:52.560Z,93013.47
2023-07-25T08:07:20.239Z,93018.13
2023-07-25T08:09:48.099Z,93016.16
2023-07-25T08:12:16.693Z,93013.25
2023-07-25T08:14:44.807Z,93008.12
2023-07-25T08:17:12.316Z,93005.41
2023-07-25T08:19:40.989Z,93001.09
2023-07-25T08:22:08.658Z,93011.87
2023-07-25T08:24:36.572Z,93002.84
2023-07-25T08:27:05.723Z,92992.75
2023-07-25T08:29:33.666Z,93001.44
2023-07-25T08:32:01.720Z,92993.12
2023-07-25T08:34:30.295Z,92993.47
2023-07-25T08:36:57.578Z,92999.34
2023-07-25T08:39:25.041Z,92994.25
2023-07-25T08:41:54.219Z,92987.59
2023-07-25T08:44:23.017Z,92995.09
2023-07-25T08:46:54.246Z,92982.06
2023-07-25T08:49:24.965Z,92980.38
2023-07-25T08:51:56.722Z,92974.41
2023-07-25T08:54:39.434Z,92975.97
2023-07-25T08:57:08.286Z,92967.69
2023-07-25T08:59:37.105Z,92973.47
2023-07-25T09:02:05.380Z,92970.84
2023-07-25T09:04:33.900Z,92968.97
2023-07-25T09:07:02.102Z,92968.63
2023-07-25T09:09:29.545Z,92973.66
2023-07-25T09:12:00.365Z,92975.38
2023-07-25T09:14:28.636Z,92977.75
2023-07-25T09:16:56.841Z,92971.22
2023-07-25T09:19:25.030Z,92972.00
2023-07-25T09:21:59.127Z,92971.22
2023-07-25T09:24:37.289Z,92965.06
2023-07-25T09:27:16.904Z,92966.63
2023-07-25T09:29:44.844Z,92963.53
2023-07-25T09:32:27.454Z,92962.41
2023-07-25T09:35:00.256Z,92954.22
2023-07-25T09:37:29.802Z,92959.25
2023-07-25T09:39:57.344Z,92950.31
2023-07-25T09:42:26.089Z,92945.66
2023-07-25T09:44:55.530Z,92950.59
2023-07-25T09:47:28.485Z,92955.59
2023-07-25T09:49:58.218Z,92945.91
2023-07-25T09:52:27.004Z,92945.84
2023-07-25T09:54:54.473Z,92939.50
2023-07-25T09:57:22.492Z,92946.47
2023-07-25T09:59:52.579Z,92950.78
2023-07-25T10:02:20.168Z,92941.31
2023-07-25T10:04:48.954Z,92938.06
2023-07-25T10:07:16.663Z,92938.72
2023-07-25T10:09:47.304Z,92931.59
2023-07-25T10:12:15.193Z,92923.19
2023-07-25T10:14:42.778Z,92933.09
2023-07-25T10:17:10.617Z,92929.03
2023-07-25T10:19:49.620Z,92922.50
2023-07-25T10:22:17.649Z,92913.16
2023-07-25T10:24:45.630Z,92914.88
2023-07-25T10:27:14.158Z,92925.31
2023-07-25T10:29:44.371Z,92916.12
2023-07-25T10:32:17.745Z,92910.28
2023-07-25T10:34:46.966Z,92907.25
2023-07-25T10:37:21.771Z,92912.59
2023-07-25T10:40:10.429Z,92905.50
2023-07-25T10:43:04.446Z,92887.53
2023-07-25T10:45:34.502Z,92892.97
2023-07-25T10:48:02.538Z,92896.72
2023-07-25T10:50:52.906Z,92893.88
2023-07-25T10:53:21.984Z,92884.63
2023-07-25T10:56:10.921Z,92869.53
2023-07-25T10:59:00.416Z,92885.44
2023-07-25T11:01:46.356Z,92874.75
2023-07-25T11:04:30.244Z,92866.59
2023-07-25T11:07:14.059Z,92874.66
2023-07-25T11:09:43.825Z,92870.22
2023-07-25T11:12:15.367Z,92863.38
2023-07-25T11:14:44.722Z,92850.97
2023-07-25T11:17:14.077Z,92852.37
2023-07-25T11:19:42.899Z,92839.88
2023-07-25T11:22:13.121Z,92831.94
2023-07-25T11:24:44.940Z,92829.31
2023-07-25T11:27:13.626Z,92838.63
2023-07-25T11:29:42.433Z,92828.25
2023-07-25T11:32:10.453Z,92820.03
2023-07-25T11:34:38.666Z,92816.50
2023-07-25T11:37:13.454Z,92811.41
2023-07-25T11:39:41.644Z,92817.47
2023-07-25T11:42:09.978Z,92814.03
2023-07-25T11:44:37.899Z,92806.50
2023-07-25T11:47:06.305Z,92810.34
2023-07-25T11:52:06.206Z,92793.56
2023-07-25T11:54:35.390Z,92797.56
2023-07-25T11:57:03.453Z,92796.91
2023-07-25T11:59:31.285Z,92799.72
2023-07-25T12:02:07.673Z,92808.84
2023-07-25T12:04:44.187Z,92798.59
2023-07-25T12:07:12.864Z,92799.59
2023-07-25T12:09:41.390Z,92798.59
2023-07-25T12:12:13.743Z,92800.03
2023-07-25T12:14:42.543Z,92790.13
2023-07-25T12:17:10.076Z,92787.72
2023-07-25T12:19:37.439Z,92786.16
2023-07-25T12:22:05.970Z,92785.31
2023-07-25T12:24:42.713Z,92788.63
2023-07-25T12:27:20.286Z,92800.88
2023-07-25T12:29:47.749Z,92799.44
2023-07-25T12:32:15.578Z,92789.53
2023-07-25T12:34:43.039Z,92773.22
2023-07-25T12:42:29.550Z,92770.34
2023-07-25T12:45:02.465Z,92770.34
2023-07-25T12:47:29.923Z,92780.66
2023-07-25T12:49:57.618Z,92770.00
2023-07-25T12:52:25.007Z,92757.47
2023-07-25T12:54:52.522Z,92746.50
2023-07-25T12:57:20.291Z,92748.59
2023-07-25T12:59:48.634Z,92743.03
2023-07-25T13:02:16.620Z,92734.12
2023-07-25T13:04:44.517Z,92729.69
2023-07-25T13:07:11.920Z,92728.16
2023-07-25T13:09:39.339Z,92732.09
2023-07-25T13:12:07.576Z,92722.78
2023-07-25T13:14:35.096Z,92713.25
2023-07-25T13:17:02.561Z,92719.88
2023-07-25T13:19:30.400Z,92723.34
2023-07-25T13:21:57.822Z,92726.69
2023-07-25T13:24:25.365Z,92709.25
2023-07-25T13:26:53.226Z,92707.25
2023-07-25T13:29:20.633Z,92734.25
2023-07-25T13:31:48.061Z,92707.34
2023-07-25T13:34:16.087Z,92713.75
2023-07-25T13:36:43.525Z,92713.87
2023-07-25T13:39:10.948Z,92696.06
2023-07-25T13:41:38.731Z,92701.50
2023-07-25T13:44:06.259Z,92706.19
2023-07-25T13:46:33.745Z,92699.50
2023-07-25T13:49:01.628Z,92694.81
2023-07-25T13:51:29.458Z,92703.78
2023-07-25T13:53:57.196Z,92684.94
2023-07-25T13:56:25.001Z,92700.03
2023-07-25T13:58:53.713Z,92698.84
2023-07-25T14:01:21.402Z,92691.69
2023-07-25T14:03:49.115Z,92696.88
2023-07-25T14:06:16.532Z,92684.19
2023-07-25T14:08:43.989Z,92680.56
2023-07-25T14:11:11.769Z,92675.91
2023-07-25T14:13:39.205Z,92693.34
2023-07-25T14:16:07.098Z,92669.78
2023-07-25T14:18:34.882Z,92675.72
2023-07-25T14:21:02.597Z,92670.00
2023-07-25T14:23:29.790Z,92664.34
2023-07-25T14:25:57.538Z,92663.34
2023-07-25T14:28:25.031Z,92674.09
2023-07-25T14:30:52.314Z,92652.47
2023-07-25T14:33:21.987Z,92686.41
2023-07-25T14:35:50.023Z,92667.19
2023-07-25T14:38:18.808Z,92670.56
2023-07-25T14:40:47.195Z,92668.97
2023-07-25T14:43:14.771Z,92667.41
2023-07-25T14:45:42.218Z,92667.97
2023-07-25T14:48:10.121Z,92660.84
2023-07-25T14:50:38.103Z,92658.38
2023-07-25T14:53:05.629Z,92650.41
2023-07-25T14:55:33.425Z,92650.38
2023-07-25T14:58:01.289Z,92645.97
2023-07-25T15:00:28.854Z,92645.41
2023-07-25T15:02:56.726Z,92651.19
2023-07-25T15:05:24.236Z,92638.75
2023-07-25T15:07:51.530Z,92643.06
2023-07-25T15:10:19.476Z,92638.09
2023-07-25T15:12:47.545Z,92636.75
2023-07-25T15:15:15.145Z,92637.78
2023-07-25T15:17:43.200Z,92642.28
2023-07-25T15:20:10.957Z,92635.16
2023-07-25T15:22:38.738Z,92645.91
2023-07-25T15:25:07.214Z,92640.47
2023-07-25T15:27:35.532Z,92645.25
2023-07-25T15:30:03.054Z,92640.38
2023-07-25T15:32:31.436Z,92646.34
2023-07-25T15:34:58.895Z,92647.72
2023-07-25T15:37:26.491Z,92638.47
2023-07-25T15:39:54.502Z,92654.63
2023-07-25T15:42:21.921Z,92643.00
2023-07-25T15:44:49.311Z,92652.59
2023-07-25T15:47:17.317Z,92639.88
2023-07-25T15:49:44.785Z,92641.03
2023-07-25T15:52:12.317Z,92648.78
2023-07-25T15:54:40.198Z,92648.47
2023-07-25T15:57:07.988Z,92649.16
2023-07-25T15:59:35.452Z,92650.47
2023-07-25T16:02:03.406Z,92655.84
2023-07-25T16:04:31.736Z,92654.28
2023-07-25T16:07:00.006Z,92654.19
2023-07-25T16:09:28.387Z,92649.94
2023-07-25T16:11:56.478Z,92659.63
2023-07-25T16:14:23.916Z,92652.56
2023-07-25T16:16:51.229Z,92650.38
2023-07-25T16:19:19.100Z,92657.38
2023-07-25T16:21:46.495Z,92659.63
2023-07-25T16:24:13.987Z,92664.00
2023-07-25T16:26:41.816Z,92654.53
2023-07-25T16:29:09.344Z,92652.75
2023-07-25T16:31:36.846Z,92656.03
2023-07-25T16:34:05.125Z,92645.44
2023-07-25T16:36:32.585Z,92648.81
2023-07-25T16:39:00.017Z,92642.97
2023-07-25T16:41:27.898Z,92650.53
2023-07-25T16:43:55.364Z,92653.97
2023-07-25T16:46:22.962Z,92657.12
2023-07-25T16:48:50.606Z,92656.06
2023-07-25T16:51:18.555Z,92663.78
2023-07-25T16:53:46.141Z,92661.84
2023-07-25T16:56:14.061Z,92666.72
2023-07-25T16:58:41.696Z,92661.84
2023-07-25T17:01:09.239Z,92669.31
2023-07-25T17:03:36.993Z,92668.59
2023-07-25T17:06:05.176Z,92666.56
2023-07-25T17:08:33.063Z,92651.38
2023-07-25T17:11:05.860Z,92660.31
2023-07-25T17:13:34.235Z,92666.31
2023-07-25T17:16:02.059Z,92674.09
2023-07-25T17:18:30.659Z,92662.50
2023-07-25T17:20:58.254Z,92661.72
2023-07-25T17:23:26.127Z,92664.88
2023-07-25T17:25:53.657Z,92669.50
2023-07-25T17:28:21.212Z,92672.16
2023-07-25T17:30:49.066Z,92673.38
2023-07-25T17:33:16.717Z,92674.13
2023-07-25T17:35:44.145Z,92676.47
2023-07-25T17:38:14.887Z,92681.12
2023-07-25T17:40:43.369Z,92685.72
2023-07-25T17:43:10.909Z,92681.09
2023-07-25T17:45:38.826Z,92678.34
2023-07-25T17:48:06.653Z,92670.59
2023-07-25T17:50:34.096Z,92667.09
2023-07-25T17:53:02.329Z,92677.56
2023-07-25T17:55:29.708Z,92672.38
2023-07-25T17:57:57.204Z,92674.69
2023-07-25T18:00:25.050Z,92663.75
2023-07-25T18:02:53.008Z,92670.63
2023-07-25T18:05:21.877Z,92670.25
2023-07-25T18:07:49.288Z,92670.97
2023-07-25T18:10:17.087Z,92683.06
2023-07-25T18:12:44.591Z,92678.09
2023-07-25T18:15:12.266Z,92674.81
2023-07-25T18:17:39.980Z,92663.94
2023-07-25T18:20:07.937Z,92673.84
2023-07-25T18:22:35.410Z,92666.69
2023-07-25T18:25:03.424Z,92671.06
2023-07-25T18:27:30.887Z,92681.03
2023-07-25T18:29:58.392Z,92689.50
2023-07-25T18:32:26.266Z,92678.72
2023-07-25T18:34:53.898Z,92680.69
2023-07-25T18:37:21.328Z,92681.47
2023-07-25T18:39:49.087Z,92678.19
2023-07-25T18:42:16.695Z,92684.72
2023-07-25T18:44:44.190Z,92688.25
2023-07-25T18:47:18.254Z,92689.72
2023-07-25T18:49:52.548Z,92687.34
2023-07-25T18:52:20.405Z,92684.47
2023-07-25T18:54:47.785Z,92669.78
2023-07-25T18:57:20.822Z,92667.06
2023-07-25T18:59:49.112Z,92672.38
2023-07-25T19:02:17.005Z,92670.38
2023-07-25T19:04:45.959Z,92652.94
2023-07-25T19:07:16.296Z,92646.03
2023-07-25T19:09:44.144Z,92660.03
2023-07-25T19:12:12.275Z,92657.66
2023-07-25T19:14:40.353Z,92642.38
2023-07-25T19:17:09.268Z,92622.25
2023-07-25T19:19:38.114Z,92628.63
2023-07-25T19:22:08.468Z,92618.66
2023-07-25T19:24:36.029Z,92619.12
2023-07-25T19:27:03.764Z,92620.16
2023-07-25T19:29:31.603Z,92615.50
2023-07-25T19:31:59.113Z,92606.69
2023-07-25T19:34:26.622Z,92609.44
2023-07-25T19:36:54.482Z,92607.41
2023-07-25T19:39:23.218Z,92606.69
2023-07-25T19:41:52.215Z,92604.59
2023-07-25T19:44:21.542Z,92603.84
2023-07-25T19:46:48.988Z,92596.66
2023-07-25T19:49:16.506Z,92607.44
2023-07-25T19:51:45.694Z,92601.38
2023-07-25T19:54:15.002Z,92609.31
2023-07-25T19:56:42.674Z,92616.44
2023-07-25T19:59:10.493Z,92605.78
2023-07-25T20:01:38.034Z,92607.13
2023-07-25T20:04:05.849Z,92609.16
2023-07-25T20:06:33.938Z,92617.50
2023-07-25T20:09:02.889Z,92613.00
2023-07-25T20:11:31.103Z,92615.87
2023-07-25T20:13:59.517Z,92604.69
2023-07-25T20:16:27.045Z,92606.78
2023-07-25T20:18:54.948Z,92599.34
2023-07-25T20:21:23.222Z,92599.22
2023-07-25T20:23:50.685Z,92603.41
2023-07-25T20:26:19.378Z,92597.53
2023-07-25T20:28:46.806Z,92593.88
2023-07-25T20:31:14.169Z,92589.50
2023-07-25T20:33:42.620Z,92596.19
2023-07-25T20:36:11.070Z,92602.66
2023-07-25T20:38:38.514Z,92604.16
2023-07-25T20:41:06.229Z,92612.62
2023-07-25T20:43:33.686Z,92602.69
2023-07-25T20:46:04.703Z,92613.31
2023-07-25T20:48:33.270Z,92617.38
2023-07-25T20:51:01.289Z,92619.38
2023-07-25T20:53:28.964Z,92624.03
2023-07-25T20:55:57.714Z,92629.19
2023-07-25T20:58:25.586Z,92632.97
2023-07-25T21:00:53.123Z,92622.44
2023-07-25T21:03:21.117Z,92632.31
2023-07-25T21:05:48.678Z,92627.19
2023-07-25T21:08:16.349Z,92615.81
2023-07-25T21:10:44.092Z,92616.06
2023-07-25T21:13:11.713Z,92607.75
2023-07-25T21:15:39.310Z,92610.34
2023-07-25T21:18:13.681Z,92604.06
2023-07-25T21:20:42.608Z,92607.19
2023-07-25T21:23:11.699Z,92607.75
2023-07-25T21:25:39.142Z,92605.78
2023-07-25T21:28:06.700Z,92595.16
2023-07-25T21:30:34.609Z,92599.53
2023-07-25T21:33:02.098Z,92579.50
2023-07-25T21:35:29.675Z,92583.78
2023-07-25T21:37:57.482Z,92580.75
2023-07-25T21:40:25.404Z,92581.09
2023-07-25T21:42:52.865Z,92575.75
2023-07-25T21:45:20.740Z,92570.94
2023-07-25T21:47:48.381Z,92573.19
2023-07-25T21:50:15.897Z,92576.87
2023-07-25T21:52:43.800Z,92562.56
2023-07-25T21:55:11.241Z,92568.31
2023-07-25T21:57:38.629Z,92559.28
2023-07-25T22:00:07.473Z,92559.97
2023-07-25T22:02:39.634Z,92557.28
2023-07-25T22:05:07.949Z,92557.38
2023-07-25T22:07:35.401Z,92556.28
2023-07-25T22:10:02.912Z,92551.03
2023-07-25T22:12:30.770Z,92554.19
2023-07-25T22:14:58.179Z,92558.50
2023-07-25T22:17:25.604Z,92557.62
2023-07-25T22:19:53.308Z,92556.28
2023-07-25T22:22:20.747Z,92550.94
2023-07-25T22:24:48.220Z,92554.06
2023-07-25T22:27:15.968Z,92556.13
2023-07-25T22:29:46.668Z,92562.00
2023-07-25T22:32:14.144Z,92551.38
2023-07-25T22:34:41.930Z,92549.06
2023-07-25T22:37:09.435Z,92548.38
2023-07-25T22:39:36.965Z,92551.12
2023-07-25T22:42:05.132Z,92555.72
2023-07-25T22:44:32.484Z,92547.78
2023-07-25T22:46:59.731Z,92552.75
2023-07-25T22:49:27.568Z,92550.56
2023-07-25T22:51:55.053Z,92542.56
2023-07-25T22:54:23.198Z,92540.19
2023-07-25T22:56:51.062Z,92533.88
2023-07-25T22:59:18.889Z,92534.69
2023-07-25T23:01:46.441Z,92537.63
2023-07-25T23:04:14.269Z,92527.16
2023-07-25T23:06:41.965Z,92527.09
2023-07-25T23:09:09.470Z,92525.34
2023-07-25T23:11:37.173Z,92509.66
2023-07-25T23:14:04.957Z,92514.56
2023-07-25T23:16:32.757Z,92515.47
2023-07-25T23:19:00.721Z,92511.31
2023-07-25T23:21:28.311Z,92514.16
2023-07-25T23:23:55.909Z,92507.25
2023-07-25T23:26:23.707Z,92503.13
2023-07-25T23:28:53.882Z,92502.00
2023-07-25T23:31:21.487Z,92502.34
2023-07-25T23:33:49.451Z,92505.91
2023-07-25T23:36:16.868Z,92507.19
2023-07-25T23:38:44.370Z,92495.59
2023-07-25T23:41:12.019Z,92493.97
2023-07-25T23:43:39.488Z,92493.75
2023-07-25T23:46:06.920Z,92490.09
2023-07-25T23:48:37.014Z,92495.56
2023-07-25T23:51:04.663Z,92490.22
2023-07-25T23:53:32.071Z,92480.69
2023-07-25T23:55:59.913Z,92479.56
2023-07-25T23:58:27.479Z,92480.16
